Terminal Aerodrome Forecast
Issued by NWS Charleston, SC

Home | Current Version | Previous Version | Text Only | Print | Product List | Glossary On
Versions: 1 2 3 4 5 6 7 8 9 10 11 12 13 14 15 16 17 18 19 20 21 22 23 24 25
199
FTUS42 KCHS 181135
TAFCHS
TAF
KCHS 181135Z 1812/1912 24008KT P6SM BKN250
     FM181500 26011G18KT P6SM SCT200
      TEMPO 1815/1818 26010G20KT P6SM BKN025
     FM182300 27009KT P6SM SCT150
     FM190400 35004KT P6SM FEW200=

USA.gov is the U.S. government's official web portal to all federal, state and local government web resources and services.